createdAt,value
2023-02-08T00:04:55.823Z,-2.10
2023-02-08T00:09:59.018Z,-2.00
2023-02-08T00:15:02.622Z,-2.00
2023-02-08T00:20:07.301Z,-2.00
2023-02-08T00:25:11.322Z,-2.10
2023-02-08T00:30:14.858Z,-2.00
2023-02-08T00:35:18.180Z,-2.00
2023-02-08T00:40:21.555Z,-1.90
2023-02-08T00:45:25.421Z,-1.90
2023-02-08T00:50:28.786Z,-1.90
2023-02-08T00:55:31.780Z,-1.90
2023-02-08T01:00:35.432Z,-1.90
2023-02-08T01:05:39.346Z,-1.90
2023-02-08T01:10:43.026Z,-1.90
2023-02-08T01:15:46.609Z,-1.80
2023-02-08T01:20:50.060Z,-1.70
2023-02-08T01:25:53.358Z,-1.70
2023-02-08T01:30:57.292Z,-1.70
2023-02-08T01:36:00.584Z,-1.70
2023-02-08T01:41:05.093Z,-1.60
2023-02-08T01:46:08.357Z,-1.50
2023-02-08T01:51:18.111Z,-1.40
2023-02-08T01:56:30.417Z,-1.30
2023-02-08T02:01:34.311Z,-1.20
2023-02-08T02:06:46.409Z,-1.10
2023-02-08T02:11:50.654Z,-1.00
2023-02-08T02:16:53.997Z,-1.00
2023-02-08T02:22:13.398Z,-1.00
2023-02-08T02:27:41.605Z,-1.00
2023-02-08T02:33:00.178Z,-0.90
2023-02-08T02:38:13.215Z,-0.90
2023-02-08T02:43:43.563Z,-0.90
2023-02-08T02:49:01.848Z,-0.90
2023-02-08T02:54:24.115Z,-0.90
2023-02-08T02:59:28.924Z,-0.90
2023-02-08T03:04:35.359Z,-0.90
2023-02-08T03:10:02.290Z,-0.80
2023-02-08T03:15:20.685Z,-0.80
2023-02-08T03:20:47.477Z,-0.90
2023-02-08T03:25:54.381Z,-0.90
2023-02-08T03:31:15.737Z,-0.90
2023-02-08T03:36:30.238Z,-0.90
2023-02-08T03:41:38.327Z,-0.80
2023-02-08T03:46:49.181Z,-0.80
2023-02-08T03:51:56.348Z,-0.80
2023-02-08T03:57:14.332Z,-0.80
2023-02-08T04:02:21.629Z,-0.80
2023-02-08T04:07:25.108Z,-0.80
2023-02-08T04:12:28.381Z,-0.80
2023-02-08T04:17:32.680Z,-0.90
2023-02-08T04:22:36.101Z,-0.90
2023-02-08T04:27:39.337Z,-0.90
2023-02-08T04:32:42.545Z,-0.90
2023-02-08T04:37:45.890Z,-1.00
2023-02-08T04:42:49.126Z,-1.00
2023-02-08T04:47:52.384Z,-1.00
2023-02-08T04:52:55.700Z,-1.00
2023-02-08T04:57:58.884Z,-0.90
2023-02-08T05:03:02.168Z,-0.90
2023-02-08T05:08:06.028Z,-1.00
2023-02-08T05:13:09.259Z,-1.00
2023-02-08T05:18:12.540Z,-1.00
2023-02-08T05:23:15.897Z,-1.00
2023-02-08T05:28:20.240Z,-0.90
2023-02-08T05:33:24.049Z,-1.00
2023-02-08T05:38:27.657Z,-1.00
2023-02-08T05:43:31.639Z,-1.00
2023-02-08T05:48:35.480Z,-1.00
2023-02-08T05:53:39.167Z,-1.00
2023-02-08T05:58:42.429Z,-1.00
2023-02-08T06:03:45.673Z,-1.00
2023-02-08T06:08:49.229Z,-1.00
2023-02-08T06:13:52.717Z,-1.00
2023-02-08T06:18:56.152Z,-1.00
2023-02-08T06:23:59.426Z,-1.00
2023-02-08T06:29:02.948Z,-1.00
2023-02-08T06:34:06.838Z,-1.00
2023-02-08T06:39:10.397Z,-1.00
2023-02-08T06:44:14.014Z,-1.00
2023-02-08T06:49:17.288Z,-1.00
2023-02-08T06:54:20.948Z,-0.90
2023-02-08T06:59:24.237Z,-1.00
2023-02-08T07:04:27.471Z,-1.10
2023-02-08T07:09:30.796Z,-1.20
2023-02-08T07:14:36.161Z,-1.20
2023-02-08T07:19:39.999Z,-1.20
2023-02-08T07:24:43.909Z,-1.30
2023-02-08T07:29:47.193Z,-1.20
2023-02-08T07:34:50.497Z,-1.20
2023-02-08T07:39:53.985Z,-1.20
2023-02-08T07:44:57.604Z,-1.20
2023-02-08T07:50:00.906Z,-1.20
2023-02-08T07:55:04.225Z,-1.10
2023-02-08T08:00:08.047Z,-1.00
2023-02-08T08:05:11.923Z,-0.90
2023-02-08T08:10:15.354Z,-0.90
2023-02-08T08:15:18.758Z,-0.80
2023-02-08T08:20:22.445Z,-0.70
2023-02-08T08:25:25.700Z,-0.60
2023-02-08T08:30:29.331Z,-0.60
2023-02-08T08:35:32.665Z,-0.50
2023-02-08T08:40:36.906Z,-0.40
2023-02-08T08:45:40.295Z,-0.30
2023-02-08T08:50:43.617Z,-0.20
2023-02-08T08:55:47.707Z,-0.10
2023-02-08T09:00:50.929Z,0.10
2023-02-08T09:05:54.364Z,0.20
2023-02-08T09:10:58.112Z,0.30
2023-02-08T09:16:09.713Z,0.50
2023-02-08T09:21:17.631Z,0.60
2023-02-08T09:26:21.089Z,0.80
2023-02-08T09:31:33.331Z,1.00
2023-02-08T09:36:39.857Z,1.10
2023-02-08T09:42:21.232Z,1.20
2023-02-08T09:47:36.158Z,1.40
2023-02-08T09:52:42.243Z,1.50
2023-02-08T09:57:46.336Z,1.60
2023-02-08T10:02:50.456Z,1.80
2023-02-08T10:07:55.198Z,1.80
2023-02-08T10:13:07.492Z,1.90
2023-02-08T10:18:39.116Z,2.10
2023-02-08T10:24:04.298Z,2.20
2023-02-08T10:29:32.625Z,2.40
2023-02-08T10:34:46.303Z,2.50
2023-02-08T10:39:51.182Z,2.60
2023-02-08T10:45:01.218Z,2.70
2023-02-08T10:50:35.332Z,2.70
2023-02-08T10:55:43.321Z,2.60
2023-02-08T11:00:48.409Z,2.60
2023-02-08T11:05:51.975Z,2.50
2023-02-08T11:11:10.139Z,2.40
2023-02-08T11:16:25.565Z,2.50
2023-02-08T11:21:40.583Z,2.60
2023-02-08T11:26:44.309Z,2.70
2023-02-08T11:31:58.570Z,2.50
2023-02-08T11:37:27.065Z,2.40
2023-02-08T11:42:41.232Z,2.60
2023-02-08T11:47:48.725Z,2.70
2023-02-08T11:53:28.399Z,2.80
2023-02-08T11:58:32.513Z,2.70
2023-02-08T12:03:41.025Z,2.60
2023-02-08T12:08:44.656Z,2.60
2023-02-08T12:14:02.682Z,2.80
2023-02-08T12:19:32.122Z,2.90
2023-02-08T12:24:56.381Z,3.00
2023-02-08T12:30:33.208Z,3.20
2023-02-08T12:36:04.060Z,3.40
2023-02-08T12:41:39.320Z,3.20
2023-02-08T12:47:37.807Z,3.10
2023-02-08T12:52:50.796Z,2.90
2023-02-08T12:57:59.830Z,2.80
2023-02-08T13:03:23.295Z,2.70
2023-02-08T13:08:50.855Z,2.50
2023-02-08T13:14:12.356Z,2.40
2023-02-08T13:19:36.728Z,2.50
2023-02-08T13:24:43.914Z,2.60
2023-02-08T13:29:49.137Z,2.60
2023-02-08T13:35:27.606Z,2.60
2023-02-08T13:40:35.165Z,2.70
2023-02-08T13:45:45.456Z,2.70
2023-02-08T13:50:53.857Z,2.70
2023-02-08T13:56:02.130Z,2.70
2023-02-08T14:01:28.197Z,2.80
2023-02-08T14:06:32.596Z,3.00
2023-02-08T14:11:50.416Z,3.30
2023-02-08T14:17:18.216Z,3.70
2023-02-08T14:22:21.656Z,3.80
2023-02-08T14:27:42.774Z,3.80
2023-02-08T14:33:02.128Z,3.50
2023-02-08T14:38:20.650Z,3.20
2023-02-08T14:43:34.350Z,3.00
2023-02-08T14:48:50.405Z,2.40
2023-02-08T14:53:57.083Z,1.90
2023-02-08T14:59:07.308Z,1.50
2023-02-08T15:04:10.996Z,1.10
2023-02-08T15:09:19.641Z,0.80
2023-02-08T15:14:23.000Z,0.60
2023-02-08T15:19:38.032Z,0.40
2023-02-08T15:24:51.061Z,0.40
2023-02-08T15:29:54.624Z,0.20
2023-02-08T15:35:03.756Z,0.00
2023-02-08T15:40:07.375Z,-0.10
2023-02-08T15:45:30.936Z,-0.20
2023-02-08T15:50:35.007Z,-0.30
2023-02-08T15:55:47.340Z,-0.40
2023-02-08T16:00:50.997Z,-0.50
2023-02-08T16:06:02.694Z,-0.70
2023-02-08T16:11:22.553Z,-0.80
2023-02-08T16:16:36.149Z,-0.90
2023-02-08T16:21:43.331Z,-1.00
2023-02-08T16:26:50.302Z,-1.10
2023-02-08T16:32:08.905Z,-1.20
2023-02-08T16:37:30.851Z,-1.30
2023-02-08T16:42:44.653Z,-1.40
2023-02-08T16:48:06.931Z,-1.50
2023-02-08T16:53:16.492Z,-1.60
2023-02-08T16:58:19.998Z,-1.80
2023-02-08T17:03:23.777Z,-1.90
2023-02-08T17:08:27.602Z,-2.10
2023-02-08T17:13:31.538Z,-2.40
2023-02-08T17:18:35.108Z,-2.80
2023-02-08T17:23:39.801Z,-3.00
2023-02-08T17:28:45.051Z,-3.20
2023-02-08T17:33:50.627Z,-3.40
2023-02-08T17:38:55.237Z,-3.60
2023-02-08T17:44:02.371Z,-3.70
2023-02-08T17:49:07.778Z,-3.80
2023-02-08T17:54:13.484Z,-3.80
2023-02-08T17:59:17.842Z,-3.90
2023-02-08T18:04:22.500Z,-4.00
2023-02-08T18:09:27.902Z,-4.00
2023-02-08T18:14:33.876Z,-4.00
2023-02-08T18:19:40.711Z,-4.00
2023-02-08T18:24:45.425Z,-4.10
2023-02-08T18:29:50.192Z,-4.30
2023-02-08T18:35:05.128Z,-4.60
2023-02-08T18:40:12.547Z,-4.90
2023-02-08T18:45:19.734Z,-5.20
2023-02-08T18:50:24.378Z,-5.40
2023-02-08T18:55:29.924Z,-5.70
2023-02-08T19:00:34.891Z,-6.00
2023-02-08T19:05:42.435Z,-6.20
2023-02-08T19:10:49.805Z,-6.40
2023-02-08T19:15:55.699Z,-6.50
2023-02-08T19:21:10.075Z,-6.50
2023-02-08T19:26:26.722Z,-6.50
2023-02-08T19:31:33.201Z,-6.50
2023-02-08T19:36:43.210Z,-6.50
2023-02-08T19:41:48.220Z,-6.40
2023-02-08T19:46:57.454Z,-6.40
2023-02-08T19:52:04.415Z,-6.30
2023-02-08T19:57:12.789Z,-6.30
2023-02-08T20:02:20.931Z,-6.40
2023-02-08T20:07:27.308Z,-6.50
2023-02-08T20:12:32.784Z,-6.70
2023-02-08T20:17:40.515Z,-7.00
2023-02-08T20:22:47.635Z,-7.10
2023-02-08T20:27:54.784Z,-7.20
2023-02-08T20:33:01.345Z,-7.30
2023-02-08T20:38:06.381Z,-7.20
2023-02-08T20:43:15.825Z,-7.30
2023-02-08T20:48:24.441Z,-7.30
2023-02-08T20:53:29.623Z,-7.40
2023-02-08T20:58:33.727Z,-7.50
2023-02-08T21:03:38.654Z,-7.50
2023-02-08T21:08:44.533Z,-7.40
2023-02-08T21:13:49.126Z,-7.40
2023-02-08T21:18:54.224Z,-7.40
2023-02-08T21:23:58.696Z,-7.50
2023-02-08T21:29:06.926Z,-7.50
2023-02-08T21:34:12.578Z,-7.60
2023-02-08T21:39:15.875Z,-7.70
2023-02-08T21:44:20.205Z,-7.90
2023-02-08T21:49:42.796Z,-8.00
2023-02-08T21:54:53.411Z,-8.10
2023-02-08T22:00:05.695Z,-8.30
2023-02-08T22:05:11.704Z,-8.30
2023-02-08T22:10:18.433Z,-8.30
2023-02-08T22:15:25.116Z,-8.30
2023-02-08T22:20:32.046Z,-8.20
2023-02-08T22:25:36.019Z,-8.20
2023-02-08T22:30:39.715Z,-8.30
2023-02-08T22:35:43.132Z,-8.30
2023-02-08T22:40:47.255Z,-8.30
2023-02-08T22:45:58.713Z,-8.30
2023-02-08T22:51:14.901Z,-8.30
2023-02-08T22:56:19.443Z,-8.30
2023-02-08T23:01:22.672Z,-8.20
2023-02-08T23:06:25.966Z,-8.10
2023-02-08T23:11:29.473Z,-8.10
2023-02-08T23:16:33.073Z,-8.10
2023-02-08T23:21:37.989Z,-8.20
2023-02-08T23:26:42.959Z,-8.30
2023-02-08T23:31:46.614Z,-8.50
2023-02-08T23:36:50.288Z,-8.50
2023-02-08T23:41:56.468Z,-8.40
2023-02-08T23:46:59.895Z,-8.00
2023-02-08T23:52:03.181Z,-7.50
2023-02-08T23:57:06.577Z,-7.50
